LFTW/FNI METAR and TAF weather

Enter ICAO airport designator
Station Type Date Time Source
LFTW METAR 2019/02/18 03:30 UTC NOAA

LFTW 180330Z AUTO 10006KT 9999 FEW028 SCT040 07/05 Q1025 TEMPO BKN012


Station Type Date Time Source
LFTW Decoded METAR 2019/02/18 03:30 UTC NOAA

Nimes / Garons, France (LFTW) 43-45N 004-25E 96M
Feb 17, 2019 - 10:30 PM EST / 2019.02.18 0330 UTC
Wind: from the E (100 degrees) at 7 MPH (6 KT):0
Visibility: greater than 7 mile(s):0
Sky conditions: partly cloudy
Temperature: 44 F (7 C)
Dew Point: 41 F (5 C)
Relative Humidity: 87%
Pressure (altimeter): 30.27 in. Hg (1025 hPa)
ob: LFTW 180330Z AUTO 10006KT 9999 FEW028 SCT040 07/05 Q1025 TEMPO BKN012
cycle: 3

Station Type Date Time Source
LFTW TAF 2019/02/18 03:42 UTC NOAA

TAF LFTW 180200Z 1803/1903 10006KT 9999 BKN020
TEMPO 1803/1808 BKN012
BECMG 1810/1813 16010KT
BECMG 1817/1820 VRB03KT


Example: see airport list